Time;durP1;ratioP1;P1;durP2;ratioP2;P2;SDS_P1;SDS_P2;PMS_P1;PMS_P2;Temp;Humidity;BMP_temperature;BMP_pressure;BME280_temperature;BME280_humidity;BME280_pressure;Samples;Min_cycle;Max_cycle;Signal;HPM_P1;HPM_P2
2021/10/03 00:00:17;;;;;;;1.40;0.68;;;;;;;15.59;100.00;98302.00;5054386;28;20049;-72
2021/10/03 00:02:48;;;;;;;0.90;0.63;;;;;;;15.57;100.00;98304.03;5055312;28;20454;-73
2021/10/03 00:05:17;;;;;;;3.85;0.70;;;;;;;15.64;100.00;98308.72;5037898;28;20045;-73
2021/10/03 00:07:59;;;;;;;0.63;0.50;;;;;;;15.61;100.00;98297.31;5055203;28;20048;-73
2021/10/03 00:10:28;;;;;;;0.43;0.43;;;;;;;15.58;100.00;98302.19;5055369;28;20041;-72
2021/10/03 00:13:02;;;;;;;2.42;0.70;;;;;;;15.56;100.00;98294.28;5055093;28;20036;-73
2021/10/03 00:15:35;;;;;;;1.42;0.60;;;;;;;15.53;100.00;98283.84;5054274;28;20338;-73
2021/10/03 00:18:03;;;;;;;1.17;0.60;;;;;;;15.58;100.00;98299.50;5056548;28;20423;-74
2021/10/03 00:20:30;;;;;;;1.25;0.55;;;;;;;15.58;100.00;98297.63;5056662;28;20064;-72
2021/10/03 00:22:58;;;;;;;0.40;0.40;;;;;;;15.53;100.00;98281.16;5055386;28;20431;-71
2021/10/03 00:25:27;;;;;;;1.08;0.50;;;;;;;15.50;100.00;98286.91;5055292;28;20045;-73
2021/10/03 00:27:55;;;;;;;2.05;0.40;;;;;;;15.53;100.00;98294.59;5055012;28;20053;-71
2021/10/03 00:30:23;;;;;;;1.15;0.60;;;;;;;15.51;100.00;98293.13;5055145;28;20037;-70
2021/10/03 00:32:50;;;;;;;0.60;0.35;;;;;;;15.53;100.00;98308.06;5055251;28;20444;-71
2021/10/03 00:35:17;;;;;;;0.52;0.35;;;;;;;15.53;100.00;98302.69;5042468;28;20053;-73
2021/10/03 00:37:45;;;;;;;0.35;0.20;;;;;;;15.58;100.00;98319.13;5035010;28;20041;-72
2021/10/03 00:40:12;;;;;;;0.32;0.20;;;;;;;15.54;100.00;98319.66;5034985;28;20435;-72
2021/10/03 00:42:40;;;;;;;0.52;0.30;;;;;;;15.60;100.00;98314.41;5034956;28;20087;-72
2021/10/03 00:45:09;;;;;;;0.88;0.32;;;;;;;15.65;100.00;98321.16;5034839;28;20446;-73
2021/10/03 00:47:36;;;;;;;0.70;0.50;;;;;;;15.66;100.00;98328.19;5033566;28;20053;-73
2021/10/03 00:50:05;;;;;;;0.82;0.30;;;;;;;15.61;100.00;98320.66;5039341;28;20148;-71
2021/10/03 00:52:32;;;;;;;0.20;0.20;;;;;;;15.69;100.00;98319.81;5053657;28;20141;-72
2021/10/03 00:54:59;;;;;;;0.20;0.20;;;;;;;15.69;100.00;98317.13;5054673;28;20094;-72
2021/10/03 00:57:26;;;;;;;0.20;0.20;;;;;;;15.67;100.00;98311.91;5053698;28;20041;-71
2021/10/03 00:59:53;;;;;;;0.15;0.15;;;;;;;15.64;100.00;98306.88;5053706;28;20711;-71
2021/10/03 01:02:20;;;;;;;0.30;0.30;;;;;;;15.70;100.00;98308.84;5054660;28;20037;-73
2021/10/03 01:04:47;;;;;;;0.20;0.20;;;;;;;15.66;100.00;98301.31;5054595;28;20045;-71
2021/10/03 01:07:14;;;;;;;0.65;0.30;;;;;;;15.76;100.00;98299.28;5053529;28;20048;-72
2021/10/03 01:09:41;;;;;;;0.90;0.25;;;;;;;15.74;100.00;98287.81;5054621;28;20053;-73
2021/10/03 01:12:08;;;;;;;0.10;0.10;;;;;;;15.82;100.00;98295.88;5053522;28;20037;-72
2021/10/03 01:14:35;;;;;;;0.17;0.17;;;;;;;15.83;100.00;98302.09;5053424;28;20491;-73
2021/10/03 01:17:02;;;;;;;0.20;0.20;;;;;;;15.77;100.00;98292.03;5054658;28;20053;-73
2021/10/03 01:19:29;;;;;;;0.10;0.10;;;;;;;15.86;100.00;98297.19;5054463;28;20045;-73
2021/10/03 01:21:56;;;;;;;0.20;0.20;;;;;;;15.91;100.00;98293.16;5053420;28;20048;-74
2021/10/03 01:24:23;;;;;;;0.20;0.20;;;;;;;15.95;100.00;98289.16;5054523;28;20052;-72
2021/10/03 01:26:49;;;;;;;0.20;0.20;;;;;;;15.97;100.00;98284.44;5055372;28;20041;-72
2021/10/03 01:29:16;;;;;;;0.30;0.20;;;;;;;15.94;100.00;98274.84;5058172;28;20072;-74
2021/10/03 01:31:43;;;;;;;0.20;0.17;;;;;;;15.97;100.00;98274.47;5058240;28;20037;-73
2021/10/03 01:34:10;;;;;;;0.15;0.15;;;;;;;16.00;100.00;98282.22;5055958;28;20140;-73
2021/10/03 01:36:37;;;;;;;0.10;0.10;;;;;;;15.90;100.00;98257.34;5038304;28;20393;-73
2021/10/03 01:39:04;;;;;;;0.47;0.20;;;;;;;16.05;100.00;98262.84;5038156;28;20060;-72
2021/10/03 01:41:30;;;;;;;0.20;0.10;;;;;;;16.04;100.00;98266.56;5037075;28;20390;-73
2021/10/03 01:43:58;;;;;;;0.20;0.20;;;;;;;16.07;100.00;98255.44;5020514;28;20049;-73
2021/10/03 01:46:25;;;;;;;0.20;0.20;;;;;;;16.12;100.00;98252.25;5037915;28;20080;-73
2021/10/03 01:48:51;;;;;;;0.85;0.20;;;;;;;16.10;100.00;98243.47;5038074;28;20045;-72
2021/10/03 01:51:20;;;;;;;0.20;0.20;;;;;;;16.11;100.00;98231.69;5053888;28;20049;-72
2021/10/03 01:53:52;;;;;;;0.20;0.20;;;;;;;16.14;100.00;98234.06;5056819;28;20079;-72
2021/10/03 01:56:22;;;;;;;0.57;0.30;;;;;;;16.09;100.00;98236.44;5058018;28;20049;-72
2021/10/03 01:58:59;;;;;;;1.40;0.27;;;;;;;16.09;100.00;98225.66;5056681;28;20102;-72
2021/10/03 02:01:42;;;;;;;0.28;0.22;;;;;;;16.13;100.00;98227.00;5056570;28;20045;-73
2021/10/03 02:04:21;;;;;;;1.08;0.40;;;;;;;16.19;100.00;98228.13;5057603;28;20037;-72
2021/10/03 02:06:53;;;;;;;0.30;0.30;;;;;;;16.24;100.00;98231.94;5057706;28;20116;-72
2021/10/03 02:09:24;;;;;;;0.20;0.20;;;;;;;16.21;100.00;98223.41;5057614;28;20049;-73
2021/10/03 02:11:53;;;;;;;0.60;0.40;;;;;;;16.30;100.00;98216.97;5057614;28;20056;-72
2021/10/03 02:14:26;;;;;;;0.95;0.40;;;;;;;16.23;100.00;98206.06;5056425;28;20128;-74
2021/10/03 02:16:55;;;;;;;3.50;0.65;;;;;;;16.33;100.00;98194.25;5057691;28;20050;-71
2021/10/03 02:19:24;;;;;;;0.70;0.50;;;;;;;16.36;100.00;98216.25;5057413;28;20112;-73
2021/10/03 02:21:52;;;;;;;0.80;0.50;;;;;;;16.30;100.00;98211.59;5057284;28;20091;-72
2021/10/03 02:24:20;;;;;;;0.85;0.63;;;;;;;16.40;100.00;98205.97;5057294;28;20110;-72
2021/10/03 02:26:47;;;;;;;2.35;0.90;;;;;;;16.45;98.65;98208.09;5039661;28;20053;-71
2021/10/03 02:29:13;;;;;;;2.30;0.90;;;;;;;16.37;98.74;98201.78;5072887;28;20056;-73
2021/10/03 02:31:40;;;;;;;2.03;1.10;;;;;;;16.35;99.04;98205.66;5056036;28;20437;-72
2021/10/03 02:34:07;;;;;;;1.65;1.40;;;;;;;16.47;95.58;98195.28;5055137;28;20040;-71
2021/10/03 02:36:34;;;;;;;1.60;1.45;;;;;;;16.49;95.91;98180.63;5037099;28;20438;-74
2021/10/03 02:39:02;;;;;;;4.47;1.40;;;;;;;16.54;94.54;98190.84;5035952;28;20049;-74
2021/10/03 02:41:30;;;;;;;2.80;1.55;;;;;;;16.66;92.03;98181.34;5036928;28;20041;-74
2021/10/03 02:43:59;;;;;;;3.05;1.52;;;;;;;16.69;92.46;98172.06;5037186;28;20116;-72
2021/10/03 02:46:26;;;;;;;3.13;1.25;;;;;;;16.63;91.87;98172.78;5037224;28;20068;-74
2021/10/03 02:48:53;;;;;;;5.45;2.05;;;;;;;16.74;91.11;98180.44;5036551;28;20450;-72
2021/10/03 02:51:24;;;;;;;3.25;1.80;;;;;;;16.70;91.06;98173.72;5052059;28;20044;-73
2021/10/03 02:53:52;;;;;;;6.20;1.88;;;;;;;16.66;90.85;98175.94;5056616;28;20044;-72
2021/10/03 02:56:21;;;;;;;3.15;2.03;;;;;;;16.74;89.35;98169.66;5056686;28;20095;-74
2021/10/03 02:58:49;;;;;;;4.20;2.15;;;;;;;16.69;89.68;98175.56;5055723;28;20052;-71
2021/10/03 03:01:17;;;;;;;5.63;2.10;;;;;;;16.64;88.91;98163.69;5055517;28;20098;-74
2021/10/03 03:03:44;;;;;;;2.55;1.98;;;;;;;16.67;88.31;98169.53;5038938;28;20110;-74
2021/10/03 03:06:12;;;;;;;3.25;2.13;;;;;;;16.73;87.83;98157.22;5038991;28;20075;-73
2021/10/03 03:08:39;;;;;;;2.63;1.95;;;;;;;16.70;88.73;98169.19;5056465;28;20045;-73
2021/10/03 03:11:07;;;;;;;5.35;2.47;;;;;;;16.74;86.21;98158.03;5055102;28;20448;-74
2021/10/03 03:13:37;;;;;;;3.10;2.20;;;;;;;16.82;86.14;98166.88;5056276;28;20045;-73
2021/10/03 03:16:05;;;;;;;;;;;;;;;16.82;86.72;98176.81;5072285;28;20135;-73
2021/10/03 03:18:32;;;;;;;5.15;3.22;;;;;;;16.74;86.93;98166.13;5038705;28;19942;-72
2021/10/03 03:20:59;;;;;;;6.03;2.60;;;;;;;16.70;86.70;98179.09;5056055;28;20758;-72
2021/10/03 03:23:26;;;;;;;3.75;2.20;;;;;;;16.76;85.52;98172.16;5056098;28;20056;-70
2021/10/03 03:25:53;;;;;;;3.50;2.22;;;;;;;16.78;85.42;98164.75;5054845;28;20072;-73
2021/10/03 03:28:20;;;;;;;7.63;2.28;;;;;;;16.71;86.50;98183.47;5055955;28;20048;-73
2021/10/03 03:30:47;;;;;;;5.10;2.53;;;;;;;16.74;86.78;98168.81;5071637;28;20051;-72
2021/10/03 03:33:15;;;;;;;4.35;2.58;;;;;;;16.75;86.21;98170.47;5055854;28;20041;-74
2021/10/03 03:35:43;;;;;;;5.13;2.58;;;;;;;16.77;85.15;98163.06;5051225;28;20382;-73
2021/10/03 03:38:10;;;;;;;4.47;2.42;;;;;;;16.75;85.37;98168.63;5034895;28;20045;-73
2021/10/03 03:40:37;;;;;;;2.60;1.85;;;;;;;16.77;85.62;98179.22;5035774;28;20065;-72
2021/10/03 03:43:04;;;;;;;6.22;2.53;;;;;;;16.91;84.17;98173.03;5035751;28;20044;-73
2021/10/03 03:45:31;;;;;;;6.35;2.75;;;;;;;16.91;84.24;98164.09;5035748;28;20048;-72
2021/10/03 03:48:01;;;;;;;4.38;2.35;;;;;;;16.92;83.23;98163.91;5034738;28;20053;-73
2021/10/03 03:50:30;;;;;;;3.97;2.87;;;;;;;16.95;82.40;98168.09;5036249;28;20446;-71
2021/10/03 03:52:58;;;;;;;7.28;2.88;;;;;;;16.95;82.81;98163.53;5054306;28;20036;-71
2021/10/03 03:55:25;;;;;;;7.78;2.92;;;;;;;16.97;82.02;98168.75;5055469;28;20049;-72
2021/10/03 03:57:52;;;;;;;6.35;3.00;;;;;;;16.95;82.83;98170.81;5055318;28;20341;-72
2021/10/03 04:00:20;;;;;;;4.38;2.55;;;;;;;17.02;81.61;98165.53;5055443;28;20091;-71
2021/10/03 04:02:47;;;;;;;3.78;2.65;;;;;;;16.96;81.22;98156.31;5054061;28;20056;-71
2021/10/03 04:05:14;;;;;;;4.75;2.67;;;;;;;16.93;82.32;98154.81;5054154;28;20041;-71
2021/10/03 04:07:42;;;;;;;3.42;2.75;;;;;;;17.00;81.04;98157.59;5054107;28;20057;-70
2021/10/03 04:10:08;;;;;;;4.72;2.85;;;;;;;16.98;81.04;98154.25;5055305;28;20045;-72
2021/10/03 04:12:35;;;;;;;7.57;2.75;;;;;;;17.03;79.79;98161.81;5055174;28;20052;-72
2021/10/03 04:15:05;;;;;;;8.05;3.00;;;;;;;17.03;80.06;98167.19;5055320;28;20072;-72
2021/10/03 04:17:32;;;;;;;3.45;2.63;;;;;;;17.03;80.39;98167.19;5055053;28;20045;-73
2021/10/03 04:19:58;;;;;;;3.60;2.80;;;;;;;16.94;80.25;98153.78;5054159;28;20048;-71
2021/10/03 04:22:25;;;;;;;6.88;3.00;;;;;;;16.97;79.92;98153.44;5037278;28;20450;-73
2021/10/03 04:24:52;;;;;;;8.35;3.00;;;;;;;17.05;80.04;98138.22;5055088;28;20044;-72
2021/10/03 04:27:19;;;;;;;5.72;2.88;;;;;;;17.12;79.24;98122.97;5053931;28;20051;-73
2021/10/03 04:29:46;;;;;;;5.85;2.90;;;;;;;16.96;79.63;98124.78;5037609;28;20037;-74
2021/10/03 04:32:13;;;;;;;7.32;3.03;;;;;;;17.07;79.23;98142.41;5054898;28;20044;-73
2021/10/03 04:34:39;;;;;;;4.18;3.03;;;;;;;17.04;79.98;98134.69;5050371;28;20037;-73
2021/10/03 04:37:06;;;;;;;4.85;2.72;;;;;;;17.00;79.60;98146.81;5034265;28;20367;-73
2021/10/03 04:39:33;;;;;;;7.68;3.13;;;;;;;16.90;79.72;98108.53;5035115;28;20052;-72
2021/10/03 04:42:00;;;;;;;6.18;3.05;;;;;;;17.10;79.36;98143.88;5034935;28;20423;-72
2021/10/03 04:44:27;;;;;;;5.40;2.75;;;;;;;17.06;80.08;98124.53;5035115;28;20129;-73
2021/10/03 04:46:54;;;;;;;7.60;3.70;;;;;;;16.97;79.72;98115.72;5034725;28;20108;-72
2021/10/03 04:49:21;;;;;;;7.25;3.20;;;;;;;17.08;79.56;98140.53;5035048;28;20442;-72
2021/10/03 04:51:48;;;;;;;4.38;2.90;;;;;;;17.09;79.29;98123.34;5034883;28;20419;-74
2021/10/03 04:54:14;;;;;;;5.45;3.40;;;;;;;17.11;79.37;98124.00;5043228;28;20431;-73
2021/10/03 04:56:42;;;;;;;5.50;3.03;;;;;;;17.16;79.44;98129.66;5034675;28;20049;-73
2021/10/03 04:59:08;;;;;;;4.47;3.30;;;;;;;17.10;79.64;98109.69;5053491;28;20041;-73
2021/10/03 05:01:35;;;;;;;5.43;2.60;;;;;;;17.08;80.01;98116.28;5037030;28;20131;-74
2021/10/03 05:04:02;;;;;;;6.05;3.10;;;;;;;17.13;79.41;98108.47;5056780;28;20047;-74
2021/10/03 05:06:29;;;;;;;6.32;3.30;;;;;;;17.18;79.03;98124.06;5057652;28;20045;-74
2021/10/03 05:08:56;;;;;;;5.45;3.10;;;;;;;17.31;78.59;98120.72;5058689;28;20040;-71
2021/10/03 05:11:23;;;;;;;5.78;3.35;;;;;;;17.34;77.87;98115.78;5057746;28;20049;-72
2021/10/03 05:13:49;;;;;;;9.32;3.42;;;;;;;17.29;78.91;98111.97;5057537;28;20091;-73
2021/10/03 05:16:16;;;;;;;8.07;3.65;;;;;;;17.23;79.58;98118.97;5057594;28;20497;-73
2021/10/03 05:18:43;;;;;;;5.80;3.20;;;;;;;17.32;79.12;98117.84;5040904;28;20052;-71
2021/10/03 05:21:10;;;;;;;6.07;3.08;;;;;;;17.30;78.79;98121.75;5058498;28;20045;-72
2021/10/03 05:23:37;;;;;;;5.90;3.33;;;;;;;17.26;79.33;98121.28;5058353;28;20070;-73
2021/10/03 05:26:04;;;;;;;7.63;3.50;;;;;;;17.26;79.11;98112.38;5058375;28;20067;-73
2021/10/03 05:28:31;;;;;;;4.43;3.15;;;;;;;17.35;78.81;98116.63;5058349;28;20049;-71
2021/10/03 05:30:58;;;;;;;7.65;3.03;;;;;;;17.27;80.01;98111.34;5057174;28;20051;-73
2021/10/03 05:33:25;;;;;;;7.85;3.38;;;;;;;17.26;79.32;98106.97;5057999;28;20041;-74
2021/10/03 05:35:51;;;;;;;5.82;3.85;;;;;;;17.32;79.68;98117.84;5055086;28;20098;-72
2021/10/03 05:38:18;;;;;;;6.13;3.78;;;;;;;17.31;79.56;98124.25;5058040;28;20052;-74
2021/10/03 05:40:45;;;;;;;5.57;3.95;;;;;;;17.30;80.43;98108.25;5056945;28;20060;-73
2021/10/03 05:43:15;;;;;;;7.50;3.55;;;;;;;17.32;79.96;98106.22;5058250;28;20045;-74
2021/10/03 05:45:42;;;;;;;7.93;3.88;;;;;;;17.21;81.19;98100.28;5057761;28;20419;-72
2021/10/03 05:48:09;;;;;;;8.07;3.95;;;;;;;17.28;80.54;98110.31;5040247;28;20079;-74
2021/10/03 05:50:36;;;;;;;9.07;3.97;;;;;;;17.27;80.94;98097.88;5057828;28;20041;-74
2021/10/03 05:53:03;;;;;;;7.85;3.65;;;;;;;17.18;82.08;98106.06;5056405;28;20110;-73
2021/10/03 05:55:30;;;;;;;4.53;3.90;;;;;;;17.13;83.05;98103.09;5057768;28;20045;-74
2021/10/03 05:57:57;;;;;;;5.10;4.13;;;;;;;17.07;83.93;98098.44;5057831;28;20431;-74
2021/10/03 06:00:27;;;;;;;8.60;4.15;;;;;;;17.02;83.83;98100.84;5050231;28;20041;-73
2021/10/03 06:02:54;;;;;;;13.13;5.17;;;;;;;16.93;85.50;98098.22;5047122;28;20434;-72
2021/10/03 06:05:21;;;;;;;6.53;4.20;;;;;;;16.86;85.98;98091.91;5057719;28;20055;-73
2021/10/03 06:07:48;;;;;;;11.27;4.43;;;;;;;16.81;86.64;98092.47;5057542;28;20073;-72
2021/10/03 06:10:15;;;;;;;7.20;4.85;;;;;;;16.85;86.18;98103.72;5036589;28;20045;-72
2021/10/03 06:12:42;;;;;;;8.35;4.55;;;;;;;16.86;86.75;98107.22;5038558;28;20042;-72
2021/10/03 06:15:09;;;;;;;5.63;4.15;;;;;;;16.82;87.62;98101.38;5055886;28;20095;-75
2021/10/03 06:17:37;;;;;;;12.57;5.65;;;;;;;16.83;86.52;98113.81;5057508;28;20052;-76
2021/10/03 06:20:05;;;;;;;9.02;4.18;;;;;;;16.86;87.01;98112.59;5055313;28;20056;-77
2021/10/03 06:22:32;;;;;;;6.15;4.35;;;;;;;16.84;87.61;98110.94;5049783;28;20075;-74
2021/10/03 06:25:02;;;;;;;7.63;4.40;;;;;;;16.84;87.45;98132.50;5044000;28;20426;-80
2021/10/03 06:27:31;;;;;;;7.80;4.05;;;;;;;16.98;86.63;98113.81;5040229;28;20045;-81
2021/10/03 06:29:59;;;;;;;10.65;4.55;;;;;;;16.97;86.66;98121.09;5041308;28;20041;-75
2021/10/03 06:32:26;;;;;;;7.35;4.13;;;;;;;16.95;87.57;98122.28;5056249;28;20448;-77
2021/10/03 06:34:55;;;;;;;6.85;4.90;;;;;;;16.93;88.01;98125.16;5067971;28;20048;-73
2021/10/03 06:37:22;;;;;;;9.65;4.45;;;;;;;16.96;88.01;98129.34;5039448;28;20067;-73
2021/10/03 06:39:49;;;;;;;11.27;4.68;;;;;;;16.92;89.17;98130.72;5054950;28;20051;-73
2021/10/03 06:42:15;;;;;;;6.57;4.72;;;;;;;16.96;88.59;98119.41;5043000;28;20037;-73
2021/10/03 06:44:43;;;;;;;9.82;4.93;;;;;;;16.94;89.62;98117.94;5044215;28;20052;-72
2021/10/03 06:47:11;;;;;;;8.52;4.72;;;;;;;16.96;89.51;98124.78;5039791;28;20053;-74
2021/10/03 06:49:39;;;;;;;8.48;4.78;;;;;;;16.93;90.18;98129.72;5059780;28;20072;-72
2021/10/03 06:52:08;;;;;;;6.28;4.55;;;;;;;16.86;90.56;98108.06;5043492;28;20446;-74
2021/10/03 06:54:36;;;;;;;6.75;4.47;;;;;;;16.84;90.78;98120.91;5049614;28;20052;-77
2021/10/03 06:57:03;;;;;;;7.78;4.78;;;;;;;16.84;91.30;98112.81;5056343;28;20335;-77
2021/10/03 06:59:33;;;;;;;10.43;4.93;;;;;;;16.82;92.64;98128.31;5055122;28;20047;-77
2021/10/03 07:02:02;;;;;;;7.13;4.95;;;;;;;16.84;92.35;98134.38;5050068;28;20037;-76
2021/10/03 07:04:31;;;;;;;14.77;5.55;;;;;;;16.85;92.48;98122.56;5038286;28;20041;-76
2021/10/03 07:06:59;;;;;;;7.30;4.63;;;;;;;16.82;93.21;98139.09;5041936;28;20385;-74
2021/10/03 07:09:26;;;;;;;9.43;5.07;;;;;;;16.70;93.98;98136.88;5041124;28;20099;-74
2021/10/03 07:11:54;;;;;;;6.90;5.32;;;;;;;16.61;95.71;98132.56;5039758;28;20045;-73
2021/10/03 07:14:22;;;;;;;7.68;5.13;;;;;;;16.62;94.81;98160.34;5038778;28;20109;-76
2021/10/03 07:16:49;;;;;;;8.55;5.13;;;;;;;16.63;94.97;98146.69;5037763;28;20116;-75
2021/10/03 07:19:16;;;;;;;7.63;5.13;;;;;;;16.55;95.73;98135.97;5039178;28;20041;-71
2021/10/03 07:21:43;;;;;;;9.05;5.40;;;;;;;16.60;95.16;98135.44;5056849;28;20052;-72
2021/10/03 07:24:10;;;;;;;6.45;5.03;;;;;;;16.52;95.75;98145.25;5051589;28;20037;-75
2021/10/03 07:26:37;;;;;;;7.80;5.05;;;;;;;16.52;95.44;98142.56;5039808;28;20037;-73
2021/10/03 07:29:04;;;;;;;8.18;5.07;;;;;;;16.57;96.68;98163.59;5054335;28;20056;-73
2021/10/03 07:31:31;;;;;;;7.68;4.63;;;;;;;16.56;95.20;98140.34;5047992;28;20037;-75
2021/10/03 07:33:58;;;;;;;14.88;4.82;;;;;;;16.62;95.56;98138.78;5049809;28;20041;-73
2021/10/03 07:36:25;;;;;;;10.82;5.10;;;;;;;16.64;95.86;98152.91;5045330;28;20403;-74
2021/10/03 07:38:52;;;;;;;6.65;4.63;;;;;;;16.67;94.33;98148.00;5040123;28;20064;-73
2021/10/03 07:41:22;;;;;;;11.00;5.85;;;;;;;16.71;94.93;98148.44;5040827;28;20422;-75
2021/10/03 07:43:49;;;;;;;7.53;5.15;;;;;;;16.69;94.22;98151.31;5055480;28;20048;-73
2021/10/03 07:46:17;;;;;;;8.98;5.28;;;;;;;16.79;93.85;98161.84;5042049;28;20316;-78
2021/10/03 07:48:44;;;;;;;7.30;4.32;;;;;;;16.84;92.03;98134.38;5049070;28;20123;-77
2021/10/03 07:51:13;;;;;;;6.18;4.55;;;;;;;16.89;92.54;98147.28;5021516;28;20049;-73
2021/10/03 07:53:41;;;;;;;9.75;4.68;;;;;;;16.94;92.86;98150.28;5043690;28;20041;-74
2021/10/03 07:56:10;;;;;;;9.73;4.88;;;;;;;16.96;93.18;98151.72;5047710;28;20048;-74
2021/10/03 07:58:37;;;;;;;6.80;4.18;;;;;;;16.93;93.27;98151.25;5047423;28;20115;-75
2021/10/03 08:01:04;;;;;;;6.68;4.25;;;;;;;16.89;93.95;98150.78;5037513;28;20037;-74
2021/10/03 08:03:31;;;;;;;9.98;4.85;;;;;;;16.90;94.10;98130.94;5040012;28;20743;-71
2021/10/03 08:05:58;;;;;;;5.82;4.22;;;;;;;16.91;93.59;98132.59;5036826;28;20059;-76
2021/10/03 08:08:25;;;;;;;5.82;4.55;;;;;;;16.99;92.36;98123.56;5047374;28;20445;-74
2021/10/03 08:10:52;;;;;;;6.80;4.47;;;;;;;17.01;94.32;98126.09;5021086;28;20366;-76
2021/10/03 08:13:19;;;;;;;7.80;4.65;;;;;;;16.95;94.26;98125.81;5056937;28;20124;-75
2021/10/03 08:15:46;;;;;;;8.38;4.75;;;;;;;16.89;94.67;98123.03;5041181;28;20045;-80
2021/10/03 08:18:13;;;;;;;7.25;4.82;;;;;;;16.88;95.13;98126.75;5048122;28;20071;-76
2021/10/03 08:20:41;;;;;;;7.28;4.68;;;;;;;16.85;95.00;98146.81;5070189;28;20123;-75
2021/10/03 08:23:09;;;;;;;4.65;4.15;;;;;;;16.80;94.23;98119.59;5039453;28;20450;-77
2021/10/03 08:25:36;;;;;;;8.57;4.53;;;;;;;16.87;94.63;98136.69;5038146;28;20041;-72
2021/10/03 08:28:03;;;;;;;8.38;3.92;;;;;;;16.92;94.50;98126.19;5038206;28;20054;-76
2021/10/03 08:30:31;;;;;;;6.35;4.35;;;;;;;17.01;93.68;98136.88;5040480;28;20077;-72
2021/10/03 08:32:58;;;;;;;5.05;4.13;;;;;;;17.07;93.53;98114.59;5039325;28;20048;-72
2021/10/03 08:35:24;;;;;;;6.50;3.83;;;;;;;17.11;92.88;98134.78;5038996;28;20032;-74
2021/10/03 08:37:51;;;;;;;8.05;4.63;;;;;;;17.17;92.97;98136.72;5038972;28;20041;-71
2021/10/03 08:40:18;;;;;;;7.43;4.25;;;;;;;17.24;92.17;98145.75;5042699;28;20076;-74
2021/10/03 08:42:45;;;;;;;9.70;4.35;;;;;;;17.33;91.55;98132.97;5044982;28;20367;-71
2021/10/03 08:45:12;;;;;;;6.30;4.10;;;;;;;17.35;92.95;98140.91;5041282;28;20422;-75
2021/10/03 08:47:41;;;;;;;10.93;4.32;;;;;;;17.40;92.28;98134.94;5045958;28;20045;-74
2021/10/03 08:50:11;;;;;;;5.93;4.00;;;;;;;17.48;91.77;98142.91;5049175;28;20048;-72
2021/10/03 08:52:40;;;;;;;5.50;3.80;;;;;;;17.57;89.40;98112.13;5052582;28;20150;-70
2021/10/03 08:55:08;;;;;;;4.90;3.53;;;;;;;17.69;89.27;98138.63;5035747;28;20080;-73
2021/10/03 08:57:35;;;;;;;5.45;3.90;;;;;;;17.69;88.29;98144.84;5038966;28;20040;-74
2021/10/03 09:00:19;;;;;;;6.45;4.10;;;;;;;17.73;90.05;98140.75;5054465;28;20418;-75
2021/10/03 09:03:07;;;;;;;6.20;3.63;;;;;;;17.80;88.65;98139.97;5051294;28;20045;-74
2021/10/03 09:05:38;;;;;;;5.05;3.80;;;;;;;17.78;88.66;98121.28;5034849;28;20061;-74
2021/10/03 09:08:18;;;;;;;5.10;3.42;;;;;;;17.86;89.14;98133.81;5034584;28;20072;-75
2021/10/03 09:10:57;;;;;;;6.57;4.10;;;;;;;17.85;88.86;98138.38;5033670;28;20050;-74
2021/10/03 09:13:30;;;;;;;7.60;3.45;;;;;;;17.98;88.79;98140.38;5044454;28;20151;-71
2021/10/03 09:16:10;;;;;;;6.10;3.92;;;;;;;17.97;88.90;98146.78;5044488;28;20347;-71
2021/10/03 09:18:43;;;;;;;10.20;4.38;;;;;;;18.00;89.20;98146.44;5046109;28;20120;-73
2021/10/03 09:21:13;;;;;;;5.68;4.10;;;;;;;18.07;87.74;98140.31;5042476;28;20443;-73
2021/10/03 09:23:40;;;;;;;4.40;3.70;;;;;;;18.26;86.02;98128.81;5044999;28;20443;-73
2021/10/03 09:26:12;;;;;;;6.88;3.97;;;;;;;18.29;87.12;98155.47;5054037;28;20087;-75
2021/10/03 09:28:42;;;;;;;5.05;3.78;;;;;;;18.40;85.97;98148.69;5045938;28;20059;-73
2021/10/03 09:31:15;;;;;;;5.07;3.85;;;;;;;18.37;86.98;98165.31;5047221;28;20051;-73
2021/10/03 09:33:42;;;;;;;6.65;3.92;;;;;;;18.31;86.75;98160.69;5047962;28;20045;-72
2021/10/03 09:36:12;;;;;;;5.38;4.15;;;;;;;18.19;87.75;98158.47;5047945;28;20044;-74
2021/10/03 09:38:47;;;;;;;5.80;3.88;;;;;;;18.14;88.32;98168.19;5050938;28;20033;-72
2021/10/03 09:41:15;;;;;;;4.07;3.67;;;;;;;18.09;88.26;98165.22;5048706;28;20038;-72
2021/10/03 09:43:46;;;;;;;5.72;4.00;;;;;;;18.19;88.22;98171.13;5050593;28;20380;-73
2021/10/03 09:46:32;;;;;;;5.55;4.50;;;;;;;18.21;87.23;98160.16;5052853;28;20373;-71
2021/10/03 09:49:00;;;;;;;6.10;4.13;;;;;;;18.19;88.14;98179.22;5055739;28;20078;-77
2021/10/03 09:51:31;;;;;;;4.65;3.78;;;;;;;18.20;87.28;98178.22;5052865;28;20044;-71
2021/10/03 09:53:58;;;;;;;7.15;4.10;;;;;;;18.08;89.77;98191.38;5030953;28;20060;-73
2021/10/03 09:56:26;;;;;;;6.32;3.55;;;;;;;17.86;91.76;98198.59;5054916;28;20136;-75
2021/10/03 09:58:55;;;;;;;6.30;4.70;;;;;;;17.66;94.08;98201.88;5049893;28;20106;-74
2021/10/03 10:01:22;;;;;;;7.63;4.03;;;;;;;17.52;96.04;98200.84;5045822;28;20041;-74
2021/10/03 10:03:49;;;;;;;7.13;4.07;;;;;;;17.45;94.65;98203.47;5052924;28;20061;-69
2021/10/03 10:06:17;;;;;;;6.50;4.03;;;;;;;17.44;94.58;98201.78;5053980;28;20033;-72
2021/10/03 10:08:48;;;;;;;4.65;3.78;;;;;;;17.33;96.54;98213.06;5044384;28;20400;-71
2021/10/03 10:11:32;;;;;;;10.07;4.32;;;;;;;17.30;97.23;98224.19;5056088;28;20427;-72
2021/10/03 10:14:03;;;;;;;6.18;4.43;;;;;;;17.24;97.63;98218.53;5046887;28;20048;-73
2021/10/03 10:16:35;;;;;;;5.40;3.75;;;;;;;17.24;96.68;98218.53;5049537;28;20450;-72
2021/10/03 10:19:24;;;;;;;7.32;4.28;;;;;;;17.21;97.74;98229.69;5050576;28;20064;-71
2021/10/03 10:22:15;;;;;;;6.15;4.10;;;;;;;17.19;97.21;98229.03;5050524;28;20041;-71
2021/10/03 10:24:49;;;;;;;7.03;4.55;;;;;;;17.21;96.61;98240.47;5058390;28;20071;-71
2021/10/03 10:27:19;;;;;;;5.65;4.13;;;;;;;17.21;97.59;98228.84;5041922;28;20125;-70
2021/10/03 10:29:49;;;;;;;6.03;4.30;;;;;;;17.18;97.52;98234.59;5055570;28;20081;-71
2021/10/03 10:32:22;;;;;;;5.70;4.25;;;;;;;17.16;98.16;98239.34;5042905;28;20041;-69
2021/10/03 10:35:07;;;;;;;10.80;4.50;;;;;;;17.08;99.15;98246.50;5061680;28;20077;-76
2021/10/03 10:37:50;;;;;;;6.03;4.00;;;;;;;17.05;100.00;98214.50;5044303;28;20037;-74
2021/10/03 10:40:23;;;;;;;6.05;4.47;;;;;;;17.05;100.00;98240.63;5051607;28;20500;-75
2021/10/03 10:42:53;;;;;;;7.47;5.00;;;;;;;17.02;99.50;98241.84;5051539;28;20048;-71
2021/10/03 10:45:41;;;;;;;7.50;4.88;;;;;;;17.09;99.95;98250.00;5048925;28;20378;-70
2021/10/03 10:48:08;;;;;;;7.45;4.57;;;;;;;17.14;99.13;98244.91;5052385;28;20460;-71
2021/10/03 10:50:44;;;;;;;8.32;4.57;;;;;;;17.20;99.53;98240.63;5062294;28;20322;-74
2021/10/03 10:53:21;;;;;;;5.53;4.43;;;;;;;17.21;100.00;98250.41;5052707;28;20056;-71
2021/10/03 10:56:01;;;;;;;6.15;4.40;;;;;;;17.20;100.00;98254.97;5062746;28;20124;-69
2021/10/03 10:58:29;;;;;;;7.95;4.20;;;;;;;17.15;100.00;98268.16;5053310;28;20041;-72
2021/10/03 11:01:05;;;;;;;7.13;4.35;;;;;;;17.19;100.00;98279.41;5047075;28;20040;-75
2021/10/03 11:03:41;;;;;;;6.57;4.30;;;;;;;17.24;99.01;98272.47;5065746;28;20461;-73
2021/10/03 11:06:09;;;;;;;7.35;4.40;;;;;;;17.28;99.84;98288.25;5052222;28;20387;-72
2021/10/03 11:08:58;;;;;;;5.93;4.30;;;;;;;17.34;97.85;98287.53;5046323;28;20044;-70
2021/10/03 11:11:29;;;;;;;4.70;4.10;;;;;;;17.32;97.10;98268.00;5064804;28;20034;-70
2021/10/03 11:13:59;;;;;;;9.07;4.53;;;;;;;17.35;96.64;98279.25;5042481;28;20044;-76
2021/10/03 11:16:38;;;;;;;8.05;4.50;;;;;;;17.37;96.93;98262.88;5042240;28;20038;-73
2021/10/03 11:19:10;;;;;;;5.88;4.60;;;;;;;17.41;96.24;98272.28;5042264;28;20360;-74
2021/10/03 11:21:38;;;;;;;5.95;4.15;;;;;;;17.47;96.15;98260.75;5041871;28;20132;-72
2021/10/03 11:24:08;;;;;;;4.75;4.22;;;;;;;17.49;95.63;98274.06;5052976;28;20442;-71
2021/10/03 11:26:44;;;;;;;6.07;4.30;;;;;;;17.52;95.32;98276.38;5053705;28;20033;-73
2021/10/03 11:29:11;;;;;;;4.82;3.90;;;;;;;17.51;94.71;98263.91;5048250;28;20348;-74
2021/10/03 11:31:41;;;;;;;6.97;4.55;;;;;;;17.66;94.06;98269.31;5042658;28;20128;-70
2021/10/03 11:34:08;;;;;;;5.88;4.20;;;;;;;17.69;94.63;98247.34;5038397;28;20136;-72
2021/10/03 11:36:48;;;;;;;6.15;4.03;;;;;;;17.76;94.65;98253.66;5039441;28;20087;-72
2021/10/03 11:39:15;;;;;;;5.40;4.28;;;;;;;17.73;93.09;98253.22;5058208;28;20132;-71